Time;durP1;ratioP1;P1;durP2;ratioP2;P2;SDS_P1;SDS_P2;PMS_P1;PMS_P2;Temp;Humidity;BMP_temperature;BMP_pressure;BME280_temperature;BME280_humidity;BME280_pressure;Samples;Min_cycle;Max_cycle;Signal;HPM_P1;HPM_P2
2021/03/15 00:03:46;;;;;;;39.65;20.75;;;;;;;5.21;56.90;98289.52;251963;1146;115281;-73
2021/03/15 00:08:48;;;;;;;40.70;20.10;;;;;;;5.17;56.98;98295.89;251910;1153;114979;-79
2021/03/15 00:13:50;;;;;;;41.30;21.03;;;;;;;5.11;56.53;98292.72;252011;1145;114598;-80
2021/03/15 00:18:52;;;;;;;41.23;21.30;;;;;;;5.08;56.63;98301.63;251416;1153;115595;-80
2021/03/15 00:23:54;;;;;;;42.00;22.65;;;;;;;5.07;56.63;98304.36;250722;1147;115076;-80
2021/03/15 00:28:57;;;;;;;41.50;22.53;;;;;;;5.04;56.70;98299.24;251884;1146;114656;-80
2021/03/15 00:33:59;;;;;;;40.35;21.98;;;;;;;4.99;56.79;98302.09;251931;1146;114955;-78
2021/03/15 00:39:02;;;;;;;41.45;23.40;;;;;;;4.92;57.17;98306.83;248440;1146;114724;-78
2021/03/15 00:44:05;;;;;;;44.33;23.60;;;;;;;4.86;57.48;98299.25;251947;1146;114844;-77
2021/03/15 00:49:09;;;;;;;44.80;23.38;;;;;;;4.83;57.33;98306.47;250858;1147;115824;-79
2021/03/15 00:54:12;;;;;;;43.38;22.98;;;;;;;4.78;57.20;98298.77;250826;1146;115702;-78
2021/03/15 00:59:15;;;;;;;49.98;23.95;;;;;;;4.79;57.86;98295.23;251936;1153;114876;-79
2021/03/15 01:04:18;;;;;;;44.50;23.87;;;;;;;4.79;57.83;98289.08;251999;1146;115250;-79
2021/03/15 01:09:47;;;;;;;47.30;24.95;;;;;;;4.80;57.89;98293.44;250340;1153;115262;-80
2021/03/15 01:15:09;;;;;;;42.30;22.70;;;;;;;4.78;57.84;98285.59;251881;1145;114702;-80
2021/03/15 01:20:16;;;;;;;;;;;;;;;4.77;57.90;98270.72;250913;1146;115097;-80
2021/03/15 01:25:20;;;;;;;45.40;24.08;;;;;;;4.76;58.14;98274.30;251956;1146;102422;-80
2021/03/15 01:30:26;;;;;;;49.17;25.77;;;;;;;4.74;57.84;98262.96;251931;1146;114869;-81
2021/03/15 01:35:29;;;;;;;46.80;25.07;;;;;;;4.72;58.14;98255.15;251912;1153;115371;-79
2021/03/15 01:40:33;;;;;;;47.95;24.95;;;;;;;4.70;57.83;98242.97;251884;1153;114696;-80
2021/03/15 01:45:35;;;;;;;44.75;24.15;;;;;;;4.66;58.38;98238.80;251968;1146;115184;-79
2021/03/15 01:50:42;;;;;;;43.68;24.38;;;;;;;4.66;58.16;98231.73;251912;1146;114889;-80
2021/03/15 01:55:45;;;;;;;44.70;23.43;;;;;;;4.63;58.23;98234.52;251949;1146;114849;-81
2021/03/15 02:00:48;;;;;;;48.33;28.07;;;;;;;4.57;57.97;98228.71;250412;1153;114955;-80
2021/03/15 02:05:53;;;;;;;50.00;26.73;;;;;;;4.51;58.45;98230.71;251101;1146;115564;-79
2021/03/15 02:10:56;;;;;;;46.17;26.17;;;;;;;4.42;58.18;98225.93;251966;1146;114625;-79
2021/03/15 02:16:30;;;;;;;46.70;26.25;;;;;;;4.35;58.03;98229.80;251992;1145;114695;-79
2021/03/15 02:21:56;;;;;;;46.65;26.73;;;;;;;4.34;58.44;98228.08;252036;1153;115087;-79
2021/03/15 02:27:29;;;;;;;48.45;25.78;;;;;;;4.31;58.12;98228.22;251748;1146;115221;-80
2021/03/15 02:33:18;;;;;;;51.20;27.30;;;;;;;4.30;58.60;98233.58;251907;1145;115291;-78
2021/03/15 02:38:23;;;;;;;49.00;26.83;;;;;;;4.26;58.47;98238.15;252048;1145;114637;-79
2021/03/15 02:43:27;;;;;;;46.90;25.60;;;;;;;4.20;58.54;98246.34;251928;1146;114920;-79
2021/03/15 02:48:34;;;;;;;42.98;23.53;;;;;;;4.16;58.72;98250.91;251921;1145;114772;-80
2021/03/15 02:53:38;;;;;;;42.63;24.63;;;;;;;4.14;59.17;98257.17;251912;1146;114925;-78
2021/03/15 02:58:42;;;;;;;42.70;25.00;;;;;;;4.10;58.76;98268.78;250738;1146;115001;-79
2021/03/15 03:03:48;;;;;;;46.23;24.37;;;;;;;4.06;59.37;98275.13;251737;1153;115104;-69
2021/03/15 03:08:54;;;;;;;45.70;24.73;;;;;;;4.04;59.40;98272.55;251889;1145;114799;-70
2021/03/15 03:13:58;;;;;;;47.87;26.13;;;;;;;4.05;59.53;98270.80;250611;1153;114602;-70
2021/03/15 03:19:02;;;;;;;54.88;26.25;;;;;;;4.05;59.62;98279.55;251770;1146;114903;-71
2021/03/15 03:24:06;;;;;;;50.70;26.90;;;;;;;4.00;59.67;98279.75;251960;1153;115667;-70
2021/03/15 03:29:12;;;;;;;48.80;27.20;;;;;;;3.96;59.50;98285.24;250884;1146;115388;-71
2021/03/15 03:34:15;;;;;;;50.87;27.97;;;;;;;3.95;59.89;98279.13;251871;1153;115107;-72
2021/03/15 03:39:17;;;;;;;52.70;28.78;;;;;;;4.02;59.89;98284.95;251744;1146;114860;-72
2021/03/15 03:44:20;;;;;;;51.30;28.93;;;;;;;4.06;60.10;98285.66;251916;1146;114926;-72
2021/03/15 03:49:22;;;;;;;49.05;26.98;;;;;;;4.09;59.88;98293.41;251853;1146;115154;-72
2021/03/15 03:54:29;;;;;;;56.23;28.33;;;;;;;4.10;60.00;98288.06;251866;1153;115130;-72
2021/03/15 03:59:34;;;;;;;49.45;28.05;;;;;;;4.11;60.04;98289.79;251877;1146;115175;-72
2021/03/15 04:04:47;;;;;;;52.20;28.53;;;;;;;4.10;59.98;98287.22;251922;1146;115222;-71
2021/03/15 04:09:53;;;;;;;52.80;28.63;;;;;;;4.09;59.90;98289.00;251058;1146;115237;-71
2021/03/15 04:14:58;;;;;;;56.70;30.27;;;;;;;4.09;60.11;98278.47;251933;1148;115047;-73
2021/03/15 04:20:06;;;;;;;56.60;29.80;;;;;;;4.14;60.04;98276.45;251948;1146;114769;-73
2021/03/15 04:25:11;;;;;;;53.50;29.45;;;;;;;4.22;60.33;98274.31;251149;1146;114789;-72
2021/03/15 04:30:14;;;;;;;52.40;29.28;;;;;;;4.28;60.52;98281.08;250919;1145;115486;-72
2021/03/15 04:35:17;;;;;;;51.85;28.35;;;;;;;4.27;59.97;98269.66;251934;1153;114891;-72
2021/03/15 04:40:23;;;;;;;53.90;29.33;;;;;;;4.25;59.96;98273.32;251929;1146;115224;-72
2021/03/15 04:45:30;;;;;;;64.45;29.85;;;;;;;4.22;59.94;98270.84;251736;1152;114899;-78
2021/03/15 04:50:34;;;;;;;53.65;27.43;;;;;;;4.18;60.20;98271.92;251940;1146;114779;-80
2021/03/15 04:55:36;;;;;;;52.45;27.95;;;;;;;4.13;60.08;98266.86;251959;1147;114946;-70
2021/03/15 05:00:43;;;;;;;50.53;28.37;;;;;;;4.11;60.36;98273.11;252009;1145;115330;-71
2021/03/15 05:05:47;;;;;;;53.53;28.63;;;;;;;4.03;60.20;98269.07;251929;1146;114747;-72
2021/03/15 05:10:51;;;;;;;52.10;29.03;;;;;;;4.00;60.75;98271.00;251940;1146;114644;-71
2021/03/15 05:15:55;;;;;;;51.60;29.53;;;;;;;4.00;61.00;98271.85;251936;1153;114529;-70
2021/03/15 05:20:59;;;;;;;56.80;29.30;;;;;;;4.07;61.05;98271.56;251957;1146;114889;-70
2021/03/15 05:26:02;;;;;;;56.80;29.43;;;;;;;4.13;60.80;98272.13;252039;1153;115574;-70
2021/03/15 05:31:06;;;;;;;50.10;28.23;;;;;;;4.17;61.22;98271.04;251855;1147;114584;-71
2021/03/15 05:36:13;;;;;;;54.70;30.20;;;;;;;4.21;61.33;98269.98;251940;1153;114720;-69
2021/03/15 05:41:16;;;;;;;49.83;28.03;;;;;;;4.27;61.22;98267.03;251911;1146;114635;-70
2021/03/15 05:46:24;;;;;;;60.85;33.25;;;;;;;4.34;61.30;98264.10;251917;1146;115998;-69
2021/03/15 05:51:42;;;;;;;66.53;31.38;;;;;;;4.45;61.39;98267.05;251956;1153;114768;-70
2021/03/15 05:57:15;;;;;;;64.07;33.10;;;;;;;4.56;61.33;98270.02;252089;1152;114996;-69
2021/03/15 06:02:53;;;;;;;60.93;31.28;;;;;;;4.66;61.45;98270.42;252269;1146;114571;-70
2021/03/15 06:08:11;;;;;;;58.60;30.97;;;;;;;4.74;61.28;98265.59;252228;1146;114669;-70
2021/03/15 06:13:15;;;;;;;52.43;28.90;;;;;;;4.78;61.47;98274.20;252019;1145;114654;-70
2021/03/15 06:18:17;;;;;;;59.15;30.85;;;;;;;4.84;61.56;98276.53;251864;1145;114940;-70
2021/03/15 06:23:20;;;;;;;59.65;32.60;;;;;;;4.87;61.39;98279.02;251881;1146;114770;-70
2021/03/15 06:28:24;;;;;;;52.30;29.55;;;;;;;4.91;61.22;98270.86;250985;1146;114764;-70
2021/03/15 06:33:27;;;;;;;54.43;31.03;;;;;;;5.00;60.83;98273.97;251753;1147;114673;-70
2021/03/15 06:38:32;;;;;;;54.98;31.15;;;;;;;5.07;61.53;98260.38;251912;1146;114629;-70
2021/03/15 06:43:35;;;;;;;56.87;30.70;;;;;;;5.10;61.11;98259.38;250937;1152;114656;-72
2021/03/15 06:48:37;;;;;;;60.65;31.05;;;;;;;5.07;61.18;98263.02;251948;1153;115081;-71
2021/03/15 06:53:42;;;;;;;60.78;32.35;;;;;;;5.15;60.94;98267.88;249880;1146;114798;-72
2021/03/15 06:58:49;;;;;;;67.13;31.63;;;;;;;5.25;61.45;98266.46;250028;1145;114814;-71
2021/03/15 07:04:12;;;;;;;55.43;32.30;;;;;;;5.34;60.76;98271.26;251610;1147;115298;-70
2021/03/15 07:09:16;;;;;;;57.75;31.40;;;;;;;5.49;61.47;98274.01;249530;1146;115850;-77
2021/03/15 07:14:25;;;;;;;52.40;28.43;;;;;;;5.62;61.76;98278.54;250654;1146;115416;-76
2021/03/15 07:19:28;;;;;;;54.37;30.00;;;;;;;5.74;61.08;98278.80;251571;1146;114923;-78
2021/03/15 07:24:31;;;;;;;50.03;29.40;;;;;;;5.80;61.19;98284.59;250788;1146;114885;-78
2021/03/15 07:29:33;;;;;;;50.60;28.90;;;;;;;5.92;60.84;98276.05;248201;1146;115511;-78
2021/03/15 07:34:35;;;;;;;46.73;25.33;;;;;;;5.99;60.63;98276.55;251956;1146;114775;-78
2021/03/15 07:39:51;;;;;;;45.38;25.80;;;;;;;6.05;61.11;98281.50;250303;1146;114819;-80
2021/03/15 07:44:53;;;;;;;;;;;;;;;6.12;60.81;98282.86;252027;1146;115337;-77
2021/03/15 07:49:59;;;;;;;36.20;20.43;;;;;;;6.19;60.89;98274.59;251311;1146;103109;-79
2021/03/15 07:55:02;;;;;;;41.50;21.85;;;;;;;6.26;60.20;98283.88;250444;1153;114925;-76
2021/03/15 08:00:05;;;;;;;41.03;23.00;;;;;;;6.39;60.48;98280.44;251242;1146;114948;-71
2021/03/15 08:05:14;;;;;;;40.60;22.33;;;;;;;6.49;60.98;98285.18;251977;1146;114836;-70
2021/03/15 08:10:16;;;;;;;42.58;21.53;;;;;;;6.55;60.22;98284.83;249972;1146;114738;-71
2021/03/15 08:15:20;;;;;;;40.50;21.30;;;;;;;6.61;60.03;98276.55;251219;1146;115741;-71
2021/03/15 08:20:24;;;;;;;30.13;16.10;;;;;;;6.70;60.75;98285.75;251927;1145;115023;-71
2021/03/15 08:25:29;;;;;;;23.73;14.03;;;;;;;6.86;60.43;98286.53;250456;1148;114665;-77
2021/03/15 08:30:32;;;;;;;23.70;13.83;;;;;;;7.05;60.33;98278.36;251944;1153;114668;-78
2021/03/15 08:35:36;;;;;;;24.05;14.03;;;;;;;7.19;59.22;98283.67;251938;1147;116099;-77
2021/03/15 08:40:44;;;;;;;19.93;12.48;;;;;;;7.32;59.09;98281.14;250287;1153;115191;-78
2021/03/15 08:45:51;;;;;;;21.15;12.45;;;;;;;7.42;59.59;98289.38;251999;1145;114826;-77
2021/03/15 08:50:57;;;;;;;23.95;13.60;;;;;;;7.45;59.38;98283.89;251629;1145;114815;-79
2021/03/15 08:55:59;;;;;;;24.40;14.23;;;;;;;7.46;58.56;98281.14;251035;1146;115232;-79
2021/03/15 09:01:03;;;;;;;21.65;13.15;;;;;;;7.50;58.52;98276.50;252093;1153;115357;-76
2021/03/15 09:06:06;;;;;;;19.93;13.47;;;;;;;7.60;58.62;98267.05;250890;1147;114753;-79
2021/03/15 09:11:35;;;;;;;25.10;13.70;;;;;;;7.74;58.80;98268.83;251940;1145;115389;-75
2021/03/15 09:16:38;;;;;;;23.83;13.75;;;;;;;7.87;57.98;98260.97;251950;1146;115367;-77
2021/03/15 09:21:45;;;;;;;21.37;13.37;;;;;;;7.97;57.97;98257.63;251491;1153;114942;-77
2021/03/15 09:26:48;;;;;;;20.05;13.33;;;;;;;8.16;58.25;98252.00;251030;1145;114768;-78
2021/03/15 09:32:02;;;;;;;19.18;13.08;;;;;;;8.35;57.74;98235.73;251728;1145;115081;-77
2021/03/15 09:37:05;;;;;;;23.00;12.87;;;;;;;8.60;58.18;98231.50;251993;1147;114784;-68
2021/03/15 09:42:08;;;;;;;20.95;13.60;;;;;;;8.76;57.21;98221.53;251973;1145;115028;-69
2021/03/15 09:47:23;;;;;;;22.10;13.48;;;;;;;8.79;57.12;98221.33;251929;1145;115047;-69
2021/03/15 09:52:26;;;;;;;;;;;;;;;8.83;56.80;98216.66;250884;1153;114764;-69
2021/03/15 09:57:35;;;;;;;17.90;12.05;;;;;;;8.91;56.55;98217.02;251940;1146;101036;-68
2021/03/15 10:03:20;;;;;;;21.90;13.30;;;;;;;8.90;56.17;98205.55;251873;1146;114718;-68
2021/03/15 10:08:51;;;;;;;21.13;13.08;;;;;;;8.86;55.84;98213.81;251783;1146;118400;-68
2021/03/15 10:14:16;;;;;;;19.50;12.60;;;;;;;8.81;55.58;98211.48;251935;1146;114793;-69
2021/03/15 10:19:37;;;;;;;24.25;12.90;;;;;;;8.79;55.18;98212.53;251797;1147;116447;-69
2021/03/15 10:24:42;;;;;;;20.50;12.55;;;;;;;8.79;55.37;98196.61;251951;1153;115057;-69
2021/03/15 10:29:57;;;;;;;26.30;14.23;;;;;;;10.41;61.40;98193.83;251103;1147;114796;-80
2021/03/15 10:35:02;;;;;;;22.45;12.95;;;;;;;12.01;58.99;98187.55;251904;1146;115029;-78
2021/03/15 10:40:11;;;;;;;17.03;11.70;;;;;;;12.80;56.04;98168.53;251749;1152;115638;-78
2021/03/15 10:45:14;;;;;;;19.60;10.63;;;;;;;13.02;53.92;98170.23;251068;1146;115016;-79
2021/03/15 10:50:31;;;;;;;18.33;10.70;;;;;;;12.87;52.04;98172.38;251753;1153;115175;-78
2021/03/15 10:55:53;;;;;;;17.25;10.03;;;;;;;12.01;50.42;98168.04;251799;1146;115444;-78
2021/03/15 11:01:24;;;;;;;16.13;10.05;;;;;;;11.33;50.63;98167.27;252077;1146;115151;-79
2021/03/15 11:06:29;;;;;;;20.00;10.93;;;;;;;10.84;50.78;98161.30;249376;1146;115514;-75
2021/03/15 11:11:53;;;;;;;14.10;8.73;;;;;;;10.44;50.94;98158.17;251425;1145;115084;-76
2021/03/15 11:17:22;;;;;;;11.10;7.18;;;;;;;10.06;50.55;98151.23;251450;1153;115023;-77
2021/03/15 11:22:48;;;;;;;10.33;5.55;;;;;;;9.79;50.64;98145.30;252034;1146;114800;-76
2021/03/15 11:27:50;;;;;;;14.00;7.35;;;;;;;9.59;50.37;98147.58;251519;1146;115459;-78
2021/03/15 11:33:02;;;;;;;11.10;5.73;;;;;;;9.45;50.41;98153.05;250947;1146;115281;-75
2021/03/15 11:38:09;;;;;;;12.57;7.10;;;;;;;9.35;50.50;98142.23;249780;1153;115246;-74
2021/03/15 11:43:24;;;;;;;15.90;8.53;;;;;;;9.30;50.32;98132.89;249925;1153;114822;-76
2021/03/15 11:48:32;;;;;;;18.00;10.03;;;;;;;9.26;50.66;98126.95;250583;1146;114880;-76
2021/03/15 11:54:01;;;;;;;15.77;7.83;;;;;;;9.26;51.21;98126.11;250813;1146;115173;-75
2021/03/15 11:59:03;;;;;;;15.93;7.85;;;;;;;9.23;51.10;98121.86;251955;1145;115296;-76
2021/03/15 12:04:06;;;;;;;14.25;7.75;;;;;;;9.16;50.75;98115.29;251974;1147;115936;-76
2021/03/15 12:09:17;;;;;;;13.60;7.53;;;;;;;9.14;50.83;98118.06;251982;1146;114900;-76
2021/03/15 12:14:22;;;;;;;;;;;;;;;9.16;50.96;98117.94;251989;1146;114650;-75
2021/03/15 12:19:28;;;;;;;12.45;7.08;;;;;;;9.15;50.64;98114.45;251699;1145;103158;-74
2021/03/15 12:24:34;;;;;;;9.37;7.07;;;;;;;9.15;50.67;98100.33;250976;1148;114962;-76
2021/03/15 12:29:37;;;;;;;12.90;6.75;;;;;;;9.18;50.40;98098.30;250058;1148;114661;-76
2021/03/15 12:34:41;;;;;;;16.67;6.90;;;;;;;9.22;50.62;98096.28;250253;1146;114850;-76
2021/03/15 12:39:49;;;;;;;11.38;6.68;;;;;;;9.26;50.75;98100.41;250866;1153;114601;-75
2021/03/15 12:44:53;;;;;;;14.70;7.20;;;;;;;9.29;50.41;98099.34;252005;1146;114550;-75
2021/03/15 12:49:56;;;;;;;17.50;7.18;;;;;;;9.29;50.21;98100.19;251884;1146;115605;-74
2021/03/15 12:55:00;;;;;;;11.50;6.80;;;;;;;9.30;49.99;98096.56;252258;1152;114539;-75
2021/03/15 13:00:04;;;;;;;9.77;6.83;;;;;;;9.32;50.44;98092.00;251738;1145;114402;-74
2021/03/15 13:05:17;;;;;;;11.83;7.37;;;;;;;9.31;50.20;98092.13;250498;1153;115494;-76
2021/03/15 13:10:49;;;;;;;12.20;6.85;;;;;;;9.30;49.94;98093.06;251109;1146;114146;-77
2021/03/15 13:15:53;;;;;;;10.83;6.70;;;;;;;9.30;49.88;98096.56;250231;1144;114557;-75
2021/03/15 13:20:57;;;;;;;10.90;7.10;;;;;;;9.34;49.96;98089.22;250701;1145;115137;-73
2021/03/15 13:26:00;;;;;;;12.80;6.95;;;;;;;9.38;49.51;98090.72;249391;1145;114323;-78
2021/03/15 13:31:09;;;;;;;14.78;7.30;;;;;;;9.44;49.72;98084.94;249278;1152;115336;-76
2021/03/15 13:36:13;;;;;;;13.68;6.85;;;;;;;9.46;49.40;98085.69;252284;1152;114583;-77
2021/03/15 13:41:25;;;;;;;11.48;7.25;;;;;;;9.54;49.26;98080.66;252195;1146;114721;-77
2021/03/15 13:46:35;;;;;;;12.25;6.15;;;;;;;9.67;49.10;98083.27;251483;1152;114303;-78
2021/03/15 13:51:41;;;;;;;11.00;6.60;;;;;;;9.87;49.11;98076.47;252230;1146;115260;-76
2021/03/15 13:56:49;;;;;;;10.05;6.20;;;;;;;10.08;48.88;98072.20;252255;1152;114488;-77
2021/03/15 14:01:58;;;;;;;12.10;6.55;;;;;;;10.09;48.21;98070.41;251041;1146;114753;-77
2021/03/15 14:07:08;;;;;;;13.13;6.77;;;;;;;10.10;47.96;98064.13;252219;1152;114859;-78
2021/03/15 14:12:12;;;;;;;12.20;6.75;;;;;;;10.12;48.19;98064.84;252250;1145;114531;-83
2021/03/15 14:17:23;;;;;;;15.05;10.25;;;;;;;10.95;50.54;98072.63;252554;1152;114710;-80
2021/03/15 14:22:27;;;;;;;20.60;12.83;;;;;;;11.15;49.41;98067.53;252538;1146;115360;-81
2021/03/15 14:27:35;;;;;;;13.15;9.20;;;;;;;11.27;48.78;98067.38;252330;1152;114908;-80
2021/03/15 14:32:38;;;;;;;12.23;7.90;;;;;;;11.24;48.50;98069.44;252209;1145;114923;-78
2021/03/15 14:37:47;;;;;;;9.93;6.07;;;;;;;10.96;46.76;98062.81;252037;1152;114886;-76
2021/03/15 14:42:50;;;;;;;9.10;6.68;;;;;;;10.72;46.67;98068.25;252228;1147;114498;-77
2021/03/15 14:48:04;;;;;;;10.70;6.68;;;;;;;10.60;46.79;98064.75;251921;1153;114509;-76
2021/03/15 14:53:18;;;;;;;10.17;6.20;;;;;;;10.50;46.72;98067.27;252269;1146;115338;-76
2021/03/15 14:58:23;;;;;;;12.00;7.03;;;;;;;10.38;46.50;98061.07;252229;1152;114744;-76
2021/03/15 15:03:26;;;;;;;12.95;7.00;;;;;;;10.32;46.88;98068.67;252115;1145;114973;-74
2021/03/15 15:08:30;;;;;;;12.48;5.70;;;;;;;10.19;46.89;98074.91;252242;1152;115158;-74
2021/03/15 15:13:38;;;;;;;14.13;6.80;;;;;;;10.07;47.10;98074.98;249258;1144;114885;-73
2021/03/15 15:18:45;;;;;;;11.20;6.80;;;;;;;9.92;47.49;98080.50;252270;1152;114778;-75
2021/03/15 15:23:48;;;;;;;16.08;7.05;;;;;;;9.80;47.56;98078.73;251885;1146;115215;-75
2021/03/15 15:28:50;;;;;;;10.03;6.57;;;;;;;9.71;47.66;98079.41;250369;1152;115119;-75
2021/03/15 15:33:52;;;;;;;14.80;6.63;;;;;;;9.62;47.53;98091.58;252110;1146;115069;-75
2021/03/15 15:38:55;;;;;;;12.90;6.10;;;;;;;9.54;47.36;98088.63;252292;1152;114547;-75
2021/03/15 15:43:57;;;;;;;12.70;6.38;;;;;;;9.46;47.19;98094.50;252074;1146;114908;-74
2021/03/15 15:48:59;;;;;;;11.33;6.45;;;;;;;9.41;47.25;98088.69;252236;1152;114628;-75
2021/03/15 15:54:03;;;;;;;13.30;6.80;;;;;;;9.33;47.10;98088.38;250830;1153;114930;-74
2021/03/15 15:59:06;;;;;;;16.30;7.18;;;;;;;9.29;47.35;98094.88;250164;1152;115013;-79
2021/03/15 16:04:09;;;;;;;12.25;6.78;;;;;;;9.22;47.40;98089.16;249595;1152;115036;-76
2021/03/15 16:09:11;;;;;;;13.55;7.58;;;;;;;9.17;47.92;98093.09;251868;1152;114908;-75
2021/03/15 16:14:15;;;;;;;14.95;7.83;;;;;;;9.12;48.39;98104.05;252201;1146;115176;-78
2021/03/15 16:19:17;;;;;;;13.53;7.98;;;;;;;9.07;48.60;98100.88;252232;1152;114767;-69
2021/03/15 16:24:20;;;;;;;16.97;8.10;;;;;;;9.06;48.14;98103.63;252141;1145;114475;-71
2021/03/15 16:29:22;;;;;;;18.70;9.47;;;;;;;9.03;48.00;98102.03;252204;1152;114838;-69
2021/03/15 16:34:26;;;;;;;13.43;8.95;;;;;;;9.00;48.66;98111.08;252169;1146;114557;-71
2021/03/15 16:39:28;;;;;;;16.65;9.20;;;;;;;8.98;48.67;98109.48;252200;1152;114456;-68
2021/03/15 16:44:31;;;;;;;17.35;9.80;;;;;;;8.94;49.01;98114.16;252189;1146;114376;-70
2021/03/15 16:49:34;;;;;;;17.40;10.83;;;;;;;8.90;48.53;98120.65;252126;1152;114941;-69
2021/03/15 16:54:36;;;;;;;17.30;10.73;;;;;;;8.87;48.94;98120.02;252177;1144;114630;-71
2021/03/15 16:59:39;;;;;;;21.10;12.10;;;;;;;8.83;48.80;98127.34;248054;1152;114723;-71
2021/03/15 17:04:42;;;;;;;16.70;10.97;;;;;;;8.79;48.79;98128.48;252181;1144;114739;-70
2021/03/15 17:09:44;;;;;;;20.70;12.15;;;;;;;8.76;49.40;98126.04;252159;1152;114611;-70
2021/03/15 17:14:47;;;;;;;20.70;12.83;;;;;;;8.71;49.13;98128.18;252179;1146;114857;-73
2021/03/15 17:19:49;;;;;;;26.60;14.65;;;;;;;8.66;49.18;98125.85;252215;1152;115154;-72
2021/03/15 17:24:52;;;;;;;25.48;14.63;;;;;;;8.62;49.10;98137.60;252168;1144;114787;-71
2021/03/15 17:29:54;;;;;;;23.07;13.73;;;;;;;8.56;48.89;98140.70;252181;1153;114377;-71
2021/03/15 17:34:56;;;;;;;24.50;14.37;;;;;;;8.50;49.43;98141.11;252192;1146;114940;-72
2021/03/15 17:39:59;;;;;;;28.20;14.60;;;;;;;8.42;49.13;98152.21;252213;1153;114709;-71
2021/03/15 17:45:02;;;;;;;28.25;15.08;;;;;;;8.33;49.02;98160.77;251860;1148;114828;-74
2021/03/15 17:50:08;;;;;;;30.25;16.30;;;;;;;8.23;49.25;98157.05;252214;1152;114589;-70
2021/03/15 17:55:11;;;;;;;32.53;18.20;;;;;;;8.12;49.89;98154.23;252221;1144;114686;-72
2021/03/15 18:00:15;;;;;;;31.65;18.85;;;;;;;8.01;49.63;98160.24;252218;1153;114608;-71
2021/03/15 18:05:18;;;;;;;38.15;18.88;;;;;;;7.90;50.14;98163.60;252130;1145;114576;-71
2021/03/15 18:10:21;;;;;;;36.90;19.50;;;;;;;7.81;50.32;98157.13;251886;1152;115042;-72
2021/03/15 18:15:23;;;;;;;37.00;20.80;;;;;;;7.72;50.19;98162.16;251994;1144;114765;-69
2021/03/15 18:20:26;;;;;;;33.95;18.13;;;;;;;7.62;49.91;98156.60;252030;1152;115486;-69
2021/03/15 18:25:28;;;;;;;37.45;18.38;;;;;;;7.50;49.88;98155.57;252092;1144;114823;-69
2021/03/15 18:30:31;;;;;;;39.43;18.25;;;;;;;7.43;50.82;98162.20;252123;1152;114695;-68
2021/03/15 18:35:34;;;;;;;40.35;18.68;;;;;;;7.30;50.69;98164.80;251717;1144;114743;-70
2021/03/15 18:40:37;;;;;;;42.00;19.18;;;;;;;7.18;50.58;98168.20;252024;1152;114780;-69
2021/03/15 18:45:41;;;;;;;41.03;20.80;;;;;;;7.10;50.63;98167.84;252052;1144;115126;-70
2021/03/15 18:50:44;;;;;;;47.85;21.80;;;;;;;7.04;50.74;98170.86;252038;1153;115230;-70
2021/03/15 18:55:46;;;;;;;41.23;22.13;;;;;;;6.99;51.57;98159.69;252087;1145;114525;-68
2021/03/15 19:00:49;;;;;;;49.13;22.58;;;;;;;6.88;51.39;98160.36;252144;1152;114976;-68
2021/03/15 19:05:52;;;;;;;45.60;23.55;;;;;;;6.76;51.94;98156.68;252085;1144;115135;-70
2021/03/15 19:10:56;;;;;;;51.13;24.00;;;;;;;6.64;51.34;98154.77;252063;1152;114623;-69
2021/03/15 19:15:58;;;;;;;48.23;25.93;;;;;;;6.51;52.22;98156.44;252076;1144;114647;-68
2021/03/15 19:21:04;;;;;;;58.23;27.95;;;;;;;6.42;52.06;98151.69;252216;1153;114711;-69
2021/03/15 19:26:07;;;;;;;56.15;27.30;;;;;;;6.30;52.17;98154.13;252123;1144;115269;-69
2021/03/15 19:31:10;;;;;;;52.53;25.03;;;;;;;6.20;52.82;98154.77;252154;1152;115106;-69
2021/03/15 19:36:13;;;;;;;66.25;30.70;;;;;;;6.10;53.03;98154.45;252111;1146;114981;-68
2021/03/15 19:41:16;;;;;;;65.43;32.03;;;;;;;5.99;52.57;98160.36;252104;1152;114671;-69
2021/03/15 19:46:18;;;;;;;68.70;33.93;;;;;;;5.87;52.89;98161.02;252080;1144;114653;-70
2021/03/15 19:51:22;;;;;;;71.17;35.27;;;;;;;5.79;52.99;98164.09;252123;1152;115305;-72
2021/03/15 19:56:24;;;;;;;71.70;37.28;;;;;;;5.71;53.97;98166.33;252152;1144;114865;-72
2021/03/15 20:01:27;;;;;;;78.97;38.83;;;;;;;5.60;53.81;98163.42;252157;1153;115107;-71
2021/03/15 20:06:30;;;;;;;75.00;39.75;;;;;;;5.50;53.90;98168.36;251817;1146;114936;-73
2021/03/15 20:11:33;;;;;;;86.37;44.17;;;;;;;5.41;53.75;98158.33;251882;1153;114738;-72
2021/03/15 20:16:35;;;;;;;81.00;43.17;;;;;;;5.32;53.88;98156.19;251858;1145;114911;-73
2021/03/15 20:21:39;;;;;;;95.53;43.77;;;;;;;5.24;53.96;98163.69;251883;1153;115056;-72
2021/03/15 20:26:41;;;;;;;92.15;45.20;;;;;;;5.16;54.91;98174.63;251605;1146;115936;-76
2021/03/15 20:31:44;;;;;;;90.33;46.20;;;;;;;5.09;54.83;98171.47;251820;1153;114974;-75
2021/03/15 20:36:50;;;;;;;104.50;49.13;;;;;;;4.97;54.95;98172.99;251825;1146;114990;-76
2021/03/15 20:41:52;;;;;;;104.88;49.90;;;;;;;4.91;54.99;98170.67;251911;1146;114965;-76
2021/03/15 20:46:55;;;;;;;88.00;46.93;;;;;;;4.83;54.90;98174.67;251906;1146;114927;-74
2021/03/15 20:51:58;;;;;;;94.65;49.58;;;;;;;4.72;54.71;98181.35;251780;1153;114759;-74
2021/03/15 20:57:00;;;;;;;105.47;50.70;;;;;;;4.65;55.28;98192.27;251804;1146;116151;-73
2021/03/15 21:02:02;;;;;;;95.40;49.50;;;;;;;4.58;55.55;98189.09;251910;1153;115002;-75
2021/03/15 21:07:09;;;;;;;99.37;48.47;;;;;;;4.52;55.69;98194.70;251826;1146;114943;-72
2021/03/15 21:12:11;;;;;;;110.33;53.47;;;;;;;4.46;55.57;98189.74;251916;1145;115041;-73
2021/03/15 21:17:14;;;;;;;125.93;56.27;;;;;;;4.41;55.50;98184.69;251846;1145;115023;-74
2021/03/15 21:22:16;;;;;;;123.30;56.35;;;;;;;4.37;55.96;98183.15;251869;1145;114939;-74
2021/03/15 21:27:19;;;;;;;115.57;56.07;;;;;;;4.33;55.88;98188.66;249319;1153;115294;-75
2021/03/15 21:32:21;;;;;;;102.50;53.57;;;;;;;4.25;55.71;98199.59;251906;1146;115868;-76
2021/03/15 21:37:25;;;;;;;116.10;56.75;;;;;;;4.18;56.40;98200.83;251738;1146;115019;-79
2021/03/15 21:42:27;;;;;;;110.05;57.30;;;;;;;4.19;56.50;98197.25;251856;1146;115149;-77
2021/03/15 21:47:29;;;;;;;110.85;55.13;;;;;;;4.10;56.47;98192.43;251923;1146;115448;-74
2021/03/15 21:52:31;;;;;;;106.70;53.48;;;;;;;3.99;56.36;98187.70;251888;1153;114950;-76
2021/03/15 21:57:35;;;;;;;110.00;54.03;;;;;;;3.88;56.67;98180.34;251901;1153;115087;-75
2021/03/15 22:02:40;;;;;;;115.93;58.95;;;;;;;3.82;56.40;98185.89;251866;1147;114793;-75
2021/03/15 22:07:45;;;;;;;125.58;63.10;;;;;;;3.76;56.72;98188.81;251917;1145;115699;-75
2021/03/15 22:12:47;;;;;;;114.18;57.78;;;;;;;3.76;56.97;98196.70;251893;1147;115285;-74
2021/03/15 22:17:49;;;;;;;114.00;56.30;;;;;;;3.67;57.10;98194.50;251994;1152;114873;-74
2021/03/15 22:22:52;;;;;;;123.38;62.60;;;;;;;3.61;56.74;98184.30;251989;1147;114942;-73
2021/03/15 22:28:02;;;;;;;116.77;58.97;;;;;;;3.62;57.35;98181.58;251985;1148;115182;-73
2021/03/15 22:33:05;;;;;;;114.30;57.75;;;;;;;3.64;57.18;98182.38;251920;1146;115373;-74
2021/03/15 22:38:08;;;;;;;122.63;57.07;;;;;;;3.63;57.33;98183.28;251983;1153;115218;-74
2021/03/15 22:43:10;;;;;;;101.18;52.60;;;;;;;3.60;57.28;98179.94;252130;1146;115309;-73
2021/03/15 22:48:14;;;;;;;109.73;53.45;;;;;;;3.58;57.27;98179.19;252003;1146;115356;-73
2021/03/15 22:53:16;;;;;;;104.07;51.73;;;;;;;3.55;57.50;98180.17;252012;1146;115341;-76
2021/03/15 22:58:18;;;;;;;102.85;52.85;;;;;;;3.52;57.53;98185.58;251932;1145;115033;-74
2021/03/15 23:03:21;;;;;;;116.90;57.60;;;;;;;3.49;57.74;98185.72;251906;1145;115372;-73
2021/03/15 23:08:24;;;;;;;119.58;60.18;;;;;;;3.40;57.55;98181.76;251981;1153;115178;-75
2021/03/15 23:13:26;;;;;;;134.15;63.43;;;;;;;3.34;57.45;98189.08;251968;1146;115509;-74
2021/03/15 23:18:28;;;;;;;132.80;64.75;;;;;;;3.29;57.71;98195.41;251908;1153;115367;-74